Athens, Michigan
Current Conditions -  °F | °C
As of 8:54 AM on Wednesday 26 Nov 2014 (Local Time) from KOEB Reporting Station
Overcast Overcast  
Wind Chill: 28°   Ceiling: 1700
Heat Index: 28°   Visibility: 10mi
Dew Point: 22°   Wind: 3mph
Humidity: 77%   Direction: 80°E
Pressure: 30.16"   Gusts: NA
Location:  42.09°N, 85.23°W
Report Text: KOEB 261354Z AUTO 08003KT 10SM OVC017 M02/M06 A3016 RMK AO2 T10221058
Loading
Personal Weather Stations






























Interactive Weather Map New forecast layout! Learn more

10-Day Weather Forecast

Advertisements
Track Severe Weather on mobile